Time;durP1;ratioP1;P1;durP2;ratioP2;P2;SDS_P1;SDS_P2;PMS_P1;PMS_P2;Temp;Humidity;BMP_temperature;BMP_pressure;BME280_temperature;BME280_humidity;BME280_pressure;Samples;Min_cycle;Max_cycle;Signal;HPM_P1;HPM_P2
2022/10/06 00:01:27;;;;;;;4.30;2.28;;;18.70;58.20;;;;;;5016732;28;20264;-77
2022/10/06 00:03:54;;;;;;;3.60;2.70;;;18.70;57.90;;;;;;4999299;28;20227;-77
2022/10/06 00:06:21;;;;;;;3.72;2.55;;;18.70;58.10;;;;;;4999216;28;20231;-78
2022/10/06 00:08:48;;;;;;;2.90;2.08;;;18.70;58.20;;;;;;4998953;28;20766;-78
2022/10/06 00:11:16;;;;;;;3.58;2.20;;;18.70;58.20;;;;;;4998640;28;20641;-78
2022/10/06 00:13:43;;;;;;;2.60;2.13;;;18.60;58.00;;;;;;4999657;28;20279;-78
2022/10/06 00:16:12;;;;;;;3.63;2.28;;;18.70;58.20;;;;;;4999429;28;20201;-78
2022/10/06 00:18:39;;;;;;;3.10;2.13;;;18.60;57.90;;;;;;4999701;28;20231;-78
2022/10/06 00:21:06;;;;;;;3.22;2.17;;;18.60;58.10;;;;;;4999279;28;20220;-78
2022/10/06 00:23:33;;;;;;;2.80;2.20;;;18.60;58.10;;;;;;4999113;28;20236;-78
2022/10/06 00:26:00;;;;;;;2.53;2.20;;;18.60;58.10;;;;;;4999495;28;20203;-78
2022/10/06 00:28:27;;;;;;;2.90;2.25;;;18.60;58.20;;;;;;4998972;28;20200;-77
2022/10/06 00:30:55;;;;;;;2.30;2.10;;;18.60;58.20;;;;;;4998217;28;20205;-77
2022/10/06 00:33:23;;;;;;;2.78;2.05;;;18.60;58.30;;;;;;4998149;28;20223;-77
2022/10/06 00:35:56;;;;;;;3.28;2.33;;;18.60;58.20;;;;;;4998289;28;20212;-77
2022/10/06 00:38:23;;;;;;;2.42;2.20;;;18.50;58.10;;;;;;4997786;28;20205;-77
2022/10/06 00:40:50;;;;;;;3.80;2.63;;;18.60;58.20;;;;;;4997919;28;20224;-77
2022/10/06 00:43:41;;;;;;;2.63;2.05;;;18.50;58.30;;;;;;4998500;28;20221;-77
2022/10/06 00:46:08;;;;;;;4.65;2.53;;;18.50;58.70;;;;;;5015900;28;20193;-77
2022/10/06 00:48:36;;;;;;;2.70;2.20;;;18.50;58.20;;;;;;4997966;28;20235;-77
2022/10/06 00:51:04;;;;;;;3.10;2.42;;;18.50;58.10;;;;;;4998561;28;20228;-77
2022/10/06 00:53:31;;;;;;;3.38;2.15;;;18.50;58.30;;;;;;4998108;28;20244;-77
2022/10/06 00:55:58;;;;;;;2.33;2.05;;;18.50;58.20;;;;;;4998017;28;20233;-77
2022/10/06 00:58:26;;;;;;;3.08;2.03;;;18.50;58.10;;;;;;4997821;28;20687;-77
2022/10/06 01:00:53;;;;;;;2.70;2.10;;;18.50;58.10;;;;;;4997861;28;20295;-77
2022/10/06 01:03:23;;;;;;;3.92;2.25;;;18.50;58.20;;;;;;4998073;28;20216;-77
2022/10/06 01:05:52;;;;;;;2.90;2.28;;;18.50;58.10;;;;;;4998743;28;20215;-77
2022/10/06 01:08:19;;;;;;;2.28;1.90;;;18.50;58.10;;;;;;4998032;28;20247;-77
2022/10/06 01:10:46;;;;;;;3.30;2.13;;;18.50;58.30;;;;;;4997910;28;20566;-77
2022/10/06 01:13:14;;;;;;;2.40;2.20;;;18.50;58.30;;;;;;4997814;28;20217;-77
2022/10/06 01:15:42;;;;;;;2.40;2.20;;;18.50;58.30;;;;;;4997631;28;20189;-77
2022/10/06 01:18:11;;;;;;;2.92;1.90;;;18.40;58.70;;;;;;5015591;28;20189;-77
2022/10/06 01:20:39;;;;;;;2.25;2.05;;;18.40;58.20;;;;;;4997505;28;20288;-77
2022/10/06 01:23:09;;;;;;;2.03;1.88;;;18.40;58.10;;;;;;4997927;28;20237;-77
2022/10/06 01:25:36;;;;;;;2.83;1.90;;;18.40;58.10;;;;;;4997537;28;20212;-77
2022/10/06 01:28:04;;;;;;;1.90;1.80;;;18.40;58.30;;;;;;4997590;28;20201;-77
2022/10/06 01:30:35;;;;;;;2.83;2.13;;;18.40;58.20;;;;;;4998443;28;20197;-77
2022/10/06 01:33:02;;;;;;;2.92;2.25;;;18.40;58.20;;;;;;4998838;28;20219;-77
2022/10/06 01:35:29;;;;;;;2.35;1.80;;;18.40;58.10;;;;;;4997664;28;20201;-77
2022/10/06 01:37:57;;;;;;;2.70;2.10;;;18.40;58.20;;;;;;5015317;28;20189;-77
2022/10/06 01:40:28;;;;;;;2.30;2.10;;;18.40;58.20;;;;;;4997180;28;20197;-77
2022/10/06 01:42:58;;;;;;;2.20;1.98;;;18.30;58.10;;;;;;4997729;28;20213;-77
2022/10/06 01:45:27;;;;;;;2.65;1.80;;;18.40;58.20;;;;;;4996891;28;20209;-77
2022/10/06 01:47:54;;;;;;;3.20;2.00;;;18.40;58.20;;;;;;4998343;28;20205;-77
2022/10/06 01:50:21;;;;;;;3.45;2.05;;;18.40;58.30;;;;;;4997513;28;20208;-77
2022/10/06 01:52:49;;;;;;;2.58;2.13;;;18.40;58.10;;;;;;4997558;28;20732;-77
2022/10/06 01:55:16;;;;;;;2.90;2.00;;;18.40;58.10;;;;;;5015188;28;20189;-78
2022/10/06 01:57:44;;;;;;;2.30;2.10;;;18.30;58.00;;;;;;4997581;28;20204;-78
2022/10/06 02:00:13;;;;;;;2.35;2.13;;;18.30;58.20;;;;;;4997209;28;20199;-78
2022/10/06 02:02:41;;;;;;;2.20;2.00;;;18.30;58.10;;;;;;4997205;28;20234;-77
2022/10/06 02:05:08;;;;;;;2.30;2.10;;;18.30;58.30;;;;;;4997266;28;20259;-77
2022/10/06 02:07:39;;;;;;;2.53;2.03;;;18.30;58.10;;;;;;4997630;28;20199;-77
2022/10/06 02:10:07;;;;;;;2.55;2.03;;;18.30;58.20;;;;;;4998017;28;20200;-77
2022/10/06 02:12:34;;;;;;;2.28;1.98;;;18.30;58.30;;;;;;4997430;28;20247;-77
2022/10/06 02:15:03;;;;;;;3.40;1.80;;;18.30;58.20;;;;;;4997169;28;20540;-78
2022/10/06 02:17:31;;;;;;;3.03;2.00;;;18.30;58.30;;;;;;4997486;28;20200;-78
2022/10/06 02:19:58;;;;;;;5.00;2.20;;;18.30;58.20;;;;;;4997038;28;20200;-77
2022/10/06 02:22:27;;;;;;;2.00;1.90;;;18.30;58.30;;;;;;4997028;28;20312;-77
2022/10/06 02:24:54;;;;;;;2.10;1.90;;;18.30;58.20;;;;;;4996924;28;20224;-78
2022/10/06 02:27:21;;;;;;;2.53;2.00;;;18.30;58.30;;;;;;4996832;28;20291;-77
2022/10/06 02:29:49;;;;;;;2.65;2.10;;;18.30;58.30;;;;;;4996634;28;20619;-77
2022/10/06 02:32:18;;;;;;;1.77;1.67;;;18.30;58.30;;;;;;4996273;28;20307;-77
2022/10/06 02:34:46;;;;;;;2.35;2.15;;;18.30;58.30;;;;;;4996338;28;20283;-77
2022/10/06 02:37:14;;;;;;;1.98;1.88;;;18.30;58.30;;;;;;4997367;28;20201;-77
2022/10/06 02:39:42;;;;;;;2.05;1.88;;;18.20;58.40;;;;;;4996654;28;20724;-77
2022/10/06 02:42:10;;;;;;;2.10;1.90;;;18.20;58.10;;;;;;4996765;28;20217;-77
2022/10/06 02:44:38;;;;;;;3.15;1.90;;;18.20;58.20;;;;;;4996704;28;20228;-77
2022/10/06 02:47:05;;;;;;;2.78;2.05;;;18.20;58.30;;;;;;4997135;28;20193;-78
2022/10/06 02:49:34;;;;;;;3.28;2.30;;;18.20;58.30;;;;;;4996740;28;20652;-77
2022/10/06 02:52:01;;;;;;;2.05;1.92;;;18.20;58.20;;;;;;4996717;28;20229;-78
2022/10/06 02:54:28;;;;;;;2.40;2.20;;;18.20;58.20;;;;;;4996537;28;20247;-78
2022/10/06 02:56:55;;;;;;;2.42;1.73;;;18.20;58.30;;;;;;4996416;28;20197;-77
2022/10/06 02:59:22;;;;;;;3.17;1.88;;;18.20;58.30;;;;;;4996160;28;20621;-77
2022/10/06 03:01:51;;;;;;;2.10;1.95;;;18.20;58.30;;;;;;4997190;28;20275;-77
2022/10/06 03:04:18;;;;;;;2.53;1.70;;;18.20;58.10;;;;;;4999758;28;20216;-77
2022/10/06 03:06:48;;;;;;;2.20;1.98;;;18.10;58.00;;;;;;5017474;28;20189;-78
2022/10/06 03:09:18;;;;;;;2.70;1.90;;;18.20;58.00;;;;;;5001204;28;20196;-78
2022/10/06 03:11:46;;;;;;;2.30;2.10;;;18.20;58.00;;;;;;5000749;28;20196;-78
2022/10/06 03:14:18;;;;;;;1.92;1.83;;;18.20;58.00;;;;;;5000451;28;20196;-78
2022/10/06 03:16:45;;;;;;;2.20;2.00;;;18.20;58.00;;;;;;5000605;28;20221;-78
2022/10/06 03:19:21;;;;;;;2.15;1.95;;;18.20;58.00;;;;;;5000711;28;20196;-78
2022/10/06 03:21:50;;;;;;;2.58;2.00;;;18.20;58.00;;;;;;4999939;28;20203;-78
2022/10/06 03:24:17;;;;;;;2.13;1.90;;;18.20;57.90;;;;;;4999561;28;20240;-77
2022/10/06 03:26:48;;;;;;;2.13;1.92;;;18.20;58.00;;;;;;4999700;28;20200;-77
2022/10/06 03:29:17;;;;;;;1.95;1.85;;;18.20;58.00;;;;;;4999670;28;20219;-78
2022/10/06 03:31:50;;;;;;;2.20;2.00;;;18.20;58.90;;;;;;5000022;28;20876;-77
2022/10/06 03:34:17;;;;;;;2.20;2.00;;;18.20;59.00;;;;;;5017326;28;20203;-77
2022/10/06 03:36:45;;;;;;;2.58;1.90;;;18.30;58.50;;;;;;4999412;28;20208;-77
2022/10/06 03:39:19;;;;;;;2.22;1.98;;;18.30;58.40;;;;;;4999321;28;20185;-77
2022/10/06 03:41:47;;;;;;;2.05;1.85;;;18.30;58.30;;;;;;4999185;28;20197;-77
2022/10/06 03:44:14;;;;;;;3.08;1.83;;;18.30;58.30;;;;;;4999226;28;20219;-77
2022/10/06 03:46:43;;;;;;;2.20;2.00;;;18.30;58.20;;;;;;4999297;28;20255;-77
2022/10/06 03:49:10;;;;;;;2.42;2.00;;;18.30;58.20;;;;;;4998958;28;20395;-77
2022/10/06 03:51:39;;;;;;;3.42;1.83;;;18.40;58.30;;;;;;5016808;28;20188;-77
2022/10/06 03:54:09;;;;;;;2.17;1.90;;;18.40;58.20;;;;;;4999791;28;20193;-76
2022/10/06 03:56:40;;;;;;;3.85;1.92;;;18.40;58.10;;;;;;5000038;28;20618;-77
2022/10/06 03:59:12;;;;;;;2.13;1.92;;;18.40;58.10;;;;;;4999326;28;20631;-77
2022/10/06 04:01:42;;;;;;;2.80;1.80;;;18.40;58.00;;;;;;4998964;28;20185;-76
2022/10/06 04:04:12;;;;;;;1.77;1.67;;;18.40;58.00;;;;;;4999079;28;20747;-77
2022/10/06 04:06:42;;;;;;;2.03;1.80;;;18.40;58.00;;;;;;4999371;28;20247;-77
2022/10/06 04:09:13;;;;;;;1.98;1.77;;;18.40;58.00;;;;;;4999432;28;20192;-77
2022/10/06 04:11:43;;;;;;;1.98;1.83;;;18.40;58.00;;;;;;4999513;28;20203;-77
2022/10/06 04:14:11;;;;;;;2.00;1.80;;;18.40;58.00;;;;;;4998666;28;20677;-77
2022/10/06 04:16:40;;;;;;;2.03;1.83;;;18.40;57.90;;;;;;4998869;28;20203;-77
2022/10/06 04:19:10;;;;;;;2.28;1.90;;;18.40;57.90;;;;;;4998647;28;20615;-77
2022/10/06 04:21:41;;;;;;;2.50;1.92;;;18.50;58.00;;;;;;4999186;28;20189;-77
2022/10/06 04:24:11;;;;;;;3.35;1.90;;;18.40;57.90;;;;;;4998526;28;20188;-77
2022/10/06 04:26:45;;;;;;;2.30;2.08;;;18.40;57.90;;;;;;4999519;28;20196;-77
2022/10/06 04:29:12;;;;;;;2.13;1.92;;;18.40;57.90;;;;;;4998573;28;20291;-77
2022/10/06 04:31:41;;;;;;;1.95;1.80;;;18.50;58.00;;;;;;4998519;28;20228;-77
2022/10/06 04:34:18;;;;;;;3.05;2.30;;;18.50;58.10;;;;;;4991654;28;20203;-77
2022/10/06 04:36:46;;;;;;;1.95;1.80;;;18.50;57.90;;;;;;4998260;28;20292;-77
2022/10/06 04:39:16;;;;;;;2.17;1.98;;;18.50;58.00;;;;;;4998956;28;20195;-77
2022/10/06 04:41:47;;;;;;;2.00;1.80;;;18.50;58.00;;;;;;4998219;28;20197;-77
2022/10/06 04:44:19;;;;;;;2.47;2.05;;;18.50;57.90;;;;;;4998795;28;20200;-77
2022/10/06 04:46:47;;;;;;;2.78;2.03;;;18.50;58.00;;;;;;4998139;28;20200;-77
2022/10/06 04:49:17;;;;;;;1.95;1.77;;;18.50;57.90;;;;;;4998189;28;20208;-77
2022/10/06 04:51:44;;;;;;;2.10;1.90;;;18.50;57.80;;;;;;4997906;28;20200;-78
2022/10/06 04:54:11;;;;;;;2.00;1.80;;;18.50;57.80;;;;;;4997923;28;20214;-77
2022/10/06 04:56:39;;;;;;;2.10;1.90;;;18.50;57.80;;;;;;4999032;28;20212;-78
2022/10/06 04:59:11;;;;;;;2.20;1.95;;;18.50;57.70;;;;;;4998065;28;20204;-78
2022/10/06 05:01:47;;;;;;;1.85;1.75;;;18.50;57.70;;;;;;5015351;28;20181;-78
2022/10/06 05:04:14;;;;;;;2.17;1.90;;;18.50;57.70;;;;;;4998458;28;20570;-78
2022/10/06 05:06:42;;;;;;;1.70;1.60;;;18.50;57.70;;;;;;4997844;28;20336;-78
2022/10/06 05:09:11;;;;;;;2.10;1.90;;;18.50;57.80;;;;;;4998398;28;20208;-77
2022/10/06 05:11:44;;;;;;;2.00;1.80;;;18.50;58.50;;;;;;4999472;28;20673;-77
2022/10/06 05:14:15;;;;;;;5.07;2.40;;;18.50;58.00;;;;;;4998485;28;20220;-77
2022/10/06 05:16:45;;;;;;;2.10;1.80;;;18.50;58.00;;;;;;4998222;28;20205;-77
2022/10/06 05:19:13;;;;;;;2.53;1.88;;;18.50;58.20;;;;;;4998332;28;20212;-77
2022/10/06 05:21:42;;;;;;;2.30;2.10;;;18.50;58.60;;;;;;4998388;28;20283;-77
2022/10/06 05:24:12;;;;;;;4.45;2.05;;;18.50;59.00;;;;;;4998337;28;20200;-78
2022/10/06 05:26:40;;;;;;;2.65;2.00;;;18.50;59.10;;;;;;4998398;28;20225;-78
2022/10/06 05:29:11;;;;;;;3.35;2.15;;;18.50;59.20;;;;;;4991003;28;20247;-77
2022/10/06 05:31:42;;;;;;;3.78;1.90;;;18.50;59.30;;;;;;4998405;28;20200;-78
2022/10/06 05:34:09;;;;;;;2.20;1.90;;;18.50;59.40;;;;;;4998790;28;20189;-78
2022/10/06 05:36:36;;;;;;;4.70;1.98;;;18.50;59.60;;;;;;4998373;28;20197;-78
2022/10/06 05:39:05;;;;;;;3.13;2.13;;;18.50;59.60;;;;;;4997862;28;20256;-78
2022/10/06 05:41:55;;;;;;;2.58;2.00;;;18.50;59.60;;;;;;4997495;28;20204;-77
2022/10/06 05:44:22;;;;;;;2.30;2.00;;;18.50;59.60;;;;;;4997672;28;20207;-77
2022/10/06 05:46:51;;;;;;;2.45;1.98;;;18.50;59.80;;;;;;4997365;28;20669;-77
2022/10/06 05:49:19;;;;;;;2.38;1.73;;;18.50;59.80;;;;;;4997250;28;20612;-77
2022/10/06 05:51:55;;;;;;;2.10;2.00;;;18.60;59.80;;;;;;4997294;28;20283;-77
2022/10/06 05:54:31;;;;;;;2.47;2.10;;;18.60;59.80;;;;;;4997934;28;20190;-77
2022/10/06 05:56:58;;;;;;;2.10;1.88;;;18.50;59.40;;;;;;5015170;28;20188;-77
2022/10/06 05:59:26;;;;;;;2.28;2.00;;;18.60;59.50;;;;;;4997739;28;20207;-77
2022/10/06 06:01:56;;;;;;;2.00;1.80;;;18.60;59.20;;;;;;4997418;28;20682;-78
2022/10/06 06:04:38;;;;;;;2.10;1.90;;;18.60;59.10;;;;;;4997407;28;20613;-77
2022/10/06 06:07:05;;;;;;;3.15;2.10;;;18.60;59.10;;;;;;4997151;28;20204;-77
2022/10/06 06:09:33;;;;;;;2.47;1.77;;;18.60;59.00;;;;;;4997578;28;20197;-77
2022/10/06 06:12:02;;;;;;;3.17;2.33;;;18.60;59.00;;;;;;4997387;28;20227;-77
2022/10/06 06:17:43;;;;;;;2.35;2.15;;;18.70;59.00;;;;;;4997751;28;20191;-77
2022/10/06 06:20:32;;;;;;;2.03;1.90;;;18.70;58.80;;;;;;5014632;28;20308;-77
2022/10/06 06:23:00;;;;;;;3.33;2.22;;;18.70;58.80;;;;;;4996771;28;20216;-77
2022/10/06 06:25:28;;;;;;;2.60;1.83;;;18.70;58.80;;;;;;4996553;28;20231;-77
2022/10/06 06:27:56;;;;;;;2.60;2.20;;;18.70;58.70;;;;;;4996732;28;20193;-77
2022/10/06 06:30:25;;;;;;;3.13;2.30;;;18.80;58.70;;;;;;4996346;28;20197;-77
2022/10/06 06:32:56;;;;;;;2.30;2.10;;;18.80;58.70;;;;;;4996440;28;20216;-77
2022/10/06 06:35:24;;;;;;;3.42;2.25;;;18.80;58.70;;;;;;4996603;28;20219;-77
2022/10/06 06:37:51;;;;;;;2.30;2.08;;;18.80;58.70;;;;;;4998095;28;20677;-77
2022/10/06 06:40:20;;;;;;;2.10;1.90;;;18.80;58.60;;;;;;5000613;28;20199;-77
2022/10/06 06:42:47;;;;;;;2.40;2.00;;;18.80;58.60;;;;;;5000337;28;20221;-77
2022/10/06 06:45:33;;;;;;;3.63;2.10;;;18.80;58.60;;;;;;5000306;28;20632;-77
2022/10/06 06:48:13;;;;;;;2.15;2.03;;;18.90;58.70;;;;;;5000097;28;20657;-77
2022/10/06 06:50:41;;;;;;;2.17;2.00;;;18.90;58.70;;;;;;5000736;28;20288;-77
2022/10/06 06:53:08;;;;;;;3.22;2.00;;;18.80;58.50;;;;;;5000076;28;20216;-77
2022/10/06 06:55:37;;;;;;;2.40;2.20;;;18.90;58.60;;;;;;5000339;28;20284;-77
2022/10/06 06:58:05;;;;;;;2.63;2.10;;;18.90;59.20;;;;;;5000177;28;20211;-77
2022/10/06 07:00:32;;;;;;;2.55;1.85;;;18.90;58.60;;;;;;5000180;28;20224;-77
2022/10/06 07:03:00;;;;;;;2.75;2.30;;;18.90;58.50;;;;;;5000105;28;20221;-77
2022/10/06 07:05:31;;;;;;;3.20;2.38;;;18.90;58.50;;;;;;5000475;28;20227;-77
2022/10/06 07:07:59;;;;;;;2.60;2.28;;;19.00;58.50;;;;;;5001871;28;20564;-77
2022/10/06 07:10:26;;;;;;;2.97;2.20;;;19.00;58.50;;;;;;5000290;28;20201;-77
2022/10/06 07:12:54;;;;;;;3.17;2.40;;;19.00;58.60;;;;;;4999656;28;20216;-77
2022/10/06 07:26:29;;;;;;;3.40;2.92;;;19.10;58.30;;;;;;4999535;28;20209;-77
2022/10/06 07:28:58;;;;;;;3.20;2.53;;;19.00;58.10;;;;;;4999265;28;20200;-77
2022/10/06 07:31:32;;;;;;;3.97;3.05;;;19.10;58.10;;;;;;5017129;28;20185;-77
2022/10/06 07:33:59;;;;;;;4.63;2.83;;;19.10;58.10;;;;;;4999320;28;20216;-77
2022/10/06 07:36:28;;;;;;;2.53;2.33;;;19.10;58.10;;;;;;4999338;28;20197;-77
2022/10/06 07:38:56;;;;;;;2.55;2.30;;;19.10;58.10;;;;;;4999119;28;20199;-77
2022/10/06 07:41:23;;;;;;;2.72;2.47;;;19.20;58.20;;;;;;4998984;28;20197;-77
2022/10/06 07:43:54;;;;;;;3.20;2.80;;;19.20;58.00;;;;;;4998977;28;20575;-77
2022/10/06 07:46:23;;;;;;;3.40;2.72;;;19.20;57.90;;;;;;4999149;28;20221;-77
2022/10/06 07:48:58;;;;;;;3.53;2.60;;;19.20;57.90;;;;;;4999196;28;20193;-77
2022/10/06 07:51:27;;;;;;;2.88;2.67;;;19.20;57.80;;;;;;4999210;28;20196;-77
2022/10/06 07:53:56;;;;;;;5.85;2.97;;;19.20;57.80;;;;;;4999725;28;20715;-77
2022/10/06 07:56:28;;;;;;;3.47;2.38;;;19.30;57.80;;;;;;5000032;28;20189;-77
2022/10/06 07:58:58;;;;;;;2.92;2.30;;;19.30;57.70;;;;;;4998999;28;20618;-77
2022/10/06 08:01:25;;;;;;;2.78;2.40;;;19.30;57.70;;;;;;4999058;28;20227;-77
2022/10/06 08:03:53;;;;;;;3.17;2.50;;;19.30;57.60;;;;;;5000349;28;20271;-77
2022/10/06 08:06:22;;;;;;;3.67;2.42;;;19.40;57.60;;;;;;4998790;28;20224;-77
2022/10/06 08:08:51;;;;;;;2.90;2.60;;;19.40;58.10;;;;;;4999162;28;20348;-77
2022/10/06 08:11:21;;;;;;;2.35;2.15;;;19.40;57.40;;;;;;4999171;28;20193;-77
2022/10/06 08:13:49;;;;;;;3.20;2.40;;;19.40;57.40;;;;;;5000417;28;20303;-77
2022/10/06 08:16:18;;;;;;;3.97;2.20;;;19.50;57.40;;;;;;4998579;28;20197;-77
2022/10/06 08:18:48;;;;;;;2.42;2.05;;;19.50;57.90;;;;;;4998593;28;20743;-77
2022/10/06 08:21:16;;;;;;;2.85;2.30;;;19.60;57.20;;;;;;4998565;28;20208;-77
2022/10/06 08:23:44;;;;;;;3.15;2.55;;;19.60;57.10;;;;;;4998475;28;20224;-77
2022/10/06 08:26:11;;;;;;;2.55;2.30;;;19.70;56.80;;;;;;4998420;28;20240;-77
2022/10/06 08:28:42;;;;;;;2.20;2.00;;;19.80;56.70;;;;;;4998332;28;20623;-77
2022/10/06 08:31:10;;;;;;;2.50;2.25;;;19.90;56.60;;;;;;4998447;28;20193;-77
2022/10/06 08:33:38;;;;;;;2.97;2.05;;;20.00;56.20;;;;;;4998758;28;20209;-77
2022/10/06 08:36:07;;;;;;;2.47;2.28;;;20.10;56.00;;;;;;4998316;28;20203;-77
2022/10/06 08:38:35;;;;;;;3.40;2.10;;;20.20;55.80;;;;;;4998429;28;20288;-77
2022/10/06 08:41:03;;;;;;;3.58;2.38;;;20.30;55.70;;;;;;4998343;28;20208;-77
2022/10/06 08:43:30;;;;;;;3.22;2.40;;;20.30;55.40;;;;;;4998222;28;20717;-77
2022/10/06 08:46:01;;;;;;;3.03;2.40;;;20.30;55.30;;;;;;4998096;28;20692;-77
2022/10/06 08:48:29;;;;;;;2.75;2.40;;;20.40;55.30;;;;;;4997934;28;20193;-77
2022/10/06 08:51:04;;;;;;;2.85;2.58;;;20.40;55.20;;;;;;4998038;28;20628;-77
2022/10/06 08:53:34;;;;;;;2.50;2.30;;;20.40;55.20;;;;;;4997896;28;20216;-77
2022/10/06 08:56:06;;;;;;;2.58;2.25;;;20.40;55.10;;;;;;4997829;28;20248;-77
2022/10/06 08:58:40;;;;;;;2.13;1.92;;;20.40;55.10;;;;;;4997654;28;20236;-77
2022/10/06 09:01:15;;;;;;;2.22;1.95;;;20.40;55.10;;;;;;4996926;28;20247;-77
2022/10/06 09:03:45;;;;;;;2.50;2.30;;;20.40;55.00;;;;;;4997777;28;20221;-77
2022/10/06 09:06:16;;;;;;;2.33;2.10;;;20.40;54.90;;;;;;4997526;28;20307;-77
2022/10/06 09:08:49;;;;;;;2.65;2.00;;;20.50;55.00;;;;;;4998002;28;20216;-77
2022/10/06 09:11:24;;;;;;;2.60;2.10;;;20.50;55.00;;;;;;4998755;28;20184;-77
2022/10/06 09:13:53;;;;;;;2.10;2.00;;;20.50;54.90;;;;;;4997505;28;20268;-77
2022/10/06 09:16:27;;;;;;;2.25;2.00;;;20.50;54.70;;;;;;4997469;28;20193;-77
2022/10/06 09:18:55;;;;;;;2.08;1.85;;;20.50;54.70;;;;;;4997465;28;20204;-77
2022/10/06 09:21:29;;;;;;;2.35;1.80;;;20.60;54.70;;;;;;5015028;28;20227;-77
2022/10/06 09:24:01;;;;;;;2.35;1.90;;;20.60;54.60;;;;;;4997146;28;20220;-77
2022/10/06 09:26:29;;;;;;;2.28;2.03;;;20.60;54.50;;;;;;4997159;28;20221;-77
2022/10/06 09:28:56;;;;;;;1.95;1.77;;;20.60;54.50;;;;;;4997289;28;20201;-77
2022/10/06 09:31:26;;;;;;;1.80;1.70;;;20.70;54.50;;;;;;4997229;28;20576;-77
2022/10/06 09:33:54;;;;;;;2.15;1.95;;;20.70;54.40;;;;;;4997023;28;20247;-77
2022/10/06 09:36:22;;;;;;;2.75;2.10;;;20.70;55.00;;;;;;4997115;28;20197;-77
2022/10/06 09:38:54;;;;;;;2.00;1.90;;;20.70;54.30;;;;;;4997078;28;20201;-77
2022/10/06 09:41:25;;;;;;;2.53;1.90;;;20.80;54.20;;;;;;4997048;28;20224;-77
2022/10/06 09:43:57;;;;;;;1.83;1.73;;;20.80;54.30;;;;;;4996983;28;20229;-77
2022/10/06 09:46:33;;;;;;;2.13;1.90;;;20.80;54.10;;;;;;4996920;28;20205;-77
2022/10/06 09:49:15;;;;;;;2.00;1.80;;;20.90;54.10;;;;;;4996910;28;20219;-77
2022/10/06 09:51:50;;;;;;;2.00;1.80;;;20.90;54.00;;;;;;4997072;28;20580;-77
2022/10/06 09:54:17;;;;;;;2.00;1.90;;;21.00;53.80;;;;;;4997459;28;20283;-77
2022/10/06 09:56:46;;;;;;;2.08;1.85;;;21.10;53.70;;;;;;4996942;28;20567;-77
2022/10/06 09:59:20;;;;;;;2.00;1.88;;;21.20;53.40;;;;;;4996886;28;20704;-77
2022/10/06 10:01:55;;;;;;;1.80;1.70;;;21.30;53.20;;;;;;4996478;28;20196;-77
2022/10/06 10:04:23;;;;;;;1.83;1.70;;;21.40;53.00;;;;;;4996635;28;20200;-77
2022/10/06 10:06:50;;;;;;;2.00;1.80;;;21.40;52.80;;;;;;4996668;28;20707;-77
2022/10/06 10:09:25;;;;;;;1.67;1.55;;;21.40;52.80;;;;;;4996638;28;20232;-77
2022/10/06 10:12:30;;;;;;;2.20;1.67;;;21.40;52.80;;;;;;4996559;28;20227;-77
2022/10/06 10:15:00;;;;;;;1.75;1.65;;;21.40;52.80;;;;;;4994927;28;20203;-77
2022/10/06 10:17:36;;;;;;;1.65;1.50;;;21.40;52.80;;;;;;4996473;28;20643;-77
2022/10/06 10:20:07;;;;;;;2.10;1.90;;;21.40;52.90;;;;;;4996560;28;20623;-77
2022/10/06 10:22:37;;;;;;;1.77;1.60;;;21.40;52.90;;;;;;4996675;28;20267;-77
2022/10/06 10:25:09;;;;;;;1.75;1.65;;;21.40;52.90;;;;;;4995986;28;20215;-77
2022/10/06 10:27:39;;;;;;;2.00;1.80;;;21.40;53.00;;;;;;4996187;28;20594;-77
2022/10/06 10:30:08;;;;;;;1.90;1.73;;;21.40;53.00;;;;;;4996283;28;20203;-77
2022/10/06 10:32:49;;;;;;;2.00;1.60;;;21.30;52.80;;;;;;4996136;28;20221;-77
2022/10/06 10:35:21;;;;;;;2.00;1.60;;;21.40;52.90;;;;;;4996283;28;20216;-77
2022/10/06 10:37:50;;;;;;;1.90;1.75;;;21.40;52.80;;;;;;4996311;28;20331;-77
2022/10/06 10:40:34;;;;;;;1.80;1.70;;;21.40;52.80;;;;;;4996449;28;20197;-77
2022/10/06 10:43:05;;;;;;;1.73;1.63;;;21.40;52.80;;;;;;4994950;28;20252;-77
2022/10/06 10:45:34;;;;;;;1.67;1.58;;;21.40;52.80;;;;;;4996852;28;20192;-77
2022/10/06 10:48:06;;;;;;;1.75;1.65;;;21.40;52.80;;;;;;4996263;28;20227;-77
2022/10/06 10:50:35;;;;;;;1.65;1.55;;;21.40;52.80;;;;;;5013068;28;20173;-77
2022/10/06 10:53:07;;;;;;;1.90;1.70;;;21.40;52.80;;;;;;5021842;28;20213;-77
2022/10/06 10:55:36;;;;;;;1.77;1.67;;;21.40;52.80;;;;;;5018006;28;20193;-76
2022/10/06 10:58:06;;;;;;;2.08;1.65;;;21.40;52.80;;;;;;4999333;28;20224;-77
2022/10/06 11:00:34;;;;;;;1.60;1.50;;;21.40;52.80;;;;;;4996874;28;20295;-77
2022/10/06 11:03:02;;;;;;;1.77;1.67;;;21.40;52.80;;;;;;5001440;28;20224;-77
2022/10/06 11:05:58;;;;;;;1.48;1.38;;;21.40;52.80;;;;;;4996576;28;20200;-77
2022/10/06 11:08:27;;;;;;;2.83;1.92;;;21.50;52.70;;;;;;4951303;28;20203;-77
2022/10/06 11:10:56;;;;;;;1.52;1.42;;;21.50;52.60;;;;;;4996182;28;20275;-77
2022/10/06 11:13:27;;;;;;;3.33;2.00;;;21.60;52.60;;;;;;4996376;28;20224;-77
2022/10/06 11:16:13;;;;;;;1.80;1.60;;;21.60;52.50;;;;;;4995925;28;20189;-77
2022/10/06 11:18:51;;;;;;;1.58;1.48;;;21.70;52.50;;;;;;4995867;28;20208;-77
2022/10/06 11:21:20;;;;;;;1.90;1.70;;;21.70;52.40;;;;;;4997009;28;20204;-77
2022/10/06 11:23:52;;;;;;;1.70;1.58;;;21.70;52.30;;;;;;4997226;28;20217;-77
2022/10/06 11:26:43;;;;;;;1.70;1.60;;;21.80;52.40;;;;;;5017080;28;20188;-77
2022/10/06 11:29:19;;;;;;;2.38;1.83;;;21.80;52.20;;;;;;4999335;28;20193;-77
2022/10/06 11:31:50;;;;;;;1.65;1.55;;;21.80;52.10;;;;;;4999429;28;20203;-77
2022/10/06 11:34:18;;;;;;;1.77;1.50;;;21.90;52.20;;;;;;4999689;28;20283;-77
2022/10/06 11:36:49;;;;;;;1.60;1.50;;;21.90;52.10;;;;;;4999247;28;20224;-77
2022/10/06 11:39:20;;;;;;;1.60;1.50;;;21.90;52.10;;;;;;4999408;28;20557;-77
2022/10/06 11:41:49;;;;;;;1.65;1.55;;;22.00;52.10;;;;;;4999412;28;20197;-77
2022/10/06 11:44:21;;;;;;;1.80;1.70;;;22.00;52.00;;;;;;4999243;28;20193;-77
2022/10/06 11:46:51;;;;;;;1.95;1.60;;;22.00;52.00;;;;;;4999225;28;20303;-77
2022/10/06 11:49:55;;;;;;;1.52;1.42;;;22.00;51.90;;;;;;5000197;28;20201;-77
2022/10/06 11:52:45;;;;;;;1.50;1.40;;;22.00;51.90;;;;;;4998949;28;20230;-77
2022/10/06 11:55:20;;;;;;;1.63;1.52;;;22.00;51.90;;;;;;4999161;28;20193;-77
2022/10/06 11:58:13;;;;;;;1.58;1.48;;;22.00;51.80;;;;;;4998745;28;20287;-77
2022/10/06 12:00:46;;;;;;;1.60;1.50;;;22.00;51.80;;;;;;4999360;28;20207;-77
2022/10/06 12:03:55;;;;;;;1.85;1.75;;;22.00;51.80;;;;;;4998897;28;20234;-77
2022/10/06 12:06:58;;;;;;;1.88;1.45;;;22.00;51.80;;;;;;4998553;28;20201;-77
2022/10/06 12:09:31;;;;;;;1.60;1.50;;;22.00;51.80;;;;;;4995554;28;20196;-77
2022/10/06 12:11:59;;;;;;;2.40;1.60;;;22.00;51.80;;;;;;5016125;28;20260;-77
2022/10/06 12:14:31;;;;;;;1.60;1.50;;;22.00;51.80;;;;;;4998789;28;20567;-77
2022/10/06 12:17:02;;;;;;;1.95;1.45;;;22.00;51.80;;;;;;4999723;28;20185;-77
2022/10/06 12:19:31;;;;;;;1.65;1.55;;;22.00;51.80;;;;;;4998528;28;20203;-77
2022/10/06 12:22:00;;;;;;;1.75;1.65;;;22.00;51.90;;;;;;4998775;28;20200;-77
2022/10/06 12:24:38;;;;;;;1.50;1.30;;;22.00;51.80;;;;;;4998339;28;20200;-77
2022/10/06 12:27:21;;;;;;;2.00;1.50;;;22.00;51.80;;;;;;4998259;28;20220;-77
2022/10/06 12:29:49;;;;;;;1.70;1.60;;;22.00;51.80;;;;;;4998111;28;20564;-77
2022/10/06 12:32:24;;;;;;;1.73;1.50;;;22.00;51.80;;;;;;5015512;28;20219;-77
2022/10/06 12:35:01;;;;;;;1.77;1.65;;;22.00;51.90;;;;;;4998847;28;20579;-77
2022/10/06 12:37:40;;;;;;;1.60;1.50;;;22.00;51.90;;;;;;5015686;28;20180;-77
2022/10/06 12:40:56;;;;;;;1.60;1.50;;;22.00;51.90;;;;;;4998112;28;20214;-77
2022/10/06 12:43:44;;;;;;;1.50;1.40;;;22.00;51.90;;;;;;4998020;28;20220;-77
2022/10/06 12:46:15;;;;;;;1.30;1.20;;;21.90;51.90;;;;;;4998394;28;20197;-77
2022/10/06 12:48:45;;;;;;;1.60;1.40;;;21.90;51.90;;;;;;4998025;28;20213;-77
2022/10/06 12:51:24;;;;;;;1.67;1.55;;;21.90;51.80;;;;;;5015841;28;20272;-77
2022/10/06 12:53:55;;;;;;;1.50;1.40;;;21.90;51.90;;;;;;4998819;28;20248;-77
2022/10/06 12:56:28;;;;;;;1.20;1.20;;;21.90;52.00;;;;;;4998449;28;20197;-77
2022/10/06 12:58:57;;;;;;;1.70;1.60;;;21.90;52.10;;;;;;4997859;28;20231;-77
2022/10/06 13:01:24;;;;;;;1.60;1.50;;;21.90;52.00;;;;;;4997819;28;20292;-77
2022/10/06 13:03:52;;;;;;;1.42;1.33;;;21.90;52.10;;;;;;5015099;28;20708;-77
2022/10/06 13:06:21;;;;;;;2.17;1.48;;;21.90;52.10;;;;;;4997697;28;20650;-77
2022/10/06 13:09:02;;;;;;;2.05;1.50;;;21.90;52.10;;;;;;4997637;28;20213;-77
2022/10/06 13:11:29;;;;;;;1.40;1.30;;;21.80;52.10;;;;;;4997656;28;20193;-77
2022/10/06 13:13:58;;;;;;;1.55;1.42;;;21.80;52.10;;;;;;4997450;28;20249;-77
2022/10/06 13:16:26;;;;;;;1.60;1.40;;;21.80;52.10;;;;;;4998213;28;20204;-77
2022/10/06 13:18:54;;;;;;;1.50;1.40;;;21.80;52.20;;;;;;4997862;28;20225;-77
2022/10/06 13:21:26;;;;;;;1.50;1.40;;;21.80;52.20;;;;;;5015385;28;20220;-77